To NAV CANADA Home Page Login to a new session Search on AWWS site Disclaimer Vers la page française équivalente Tips FAQ What's new on the site To the Forecasts and Observations / NOTAM section To "File a Flight Plan" website Publications and other links Update of the User's profile FIC Telephone Numbers My Weather Data Folder Route Weather Data Regional Weather Data Local Weather Data To the Forecasts and Observations / NOTAM section
Request Generated 10/21/2018 at 05:51:30 UTC . Weather information available at that time is displayed.

METAR/TAF

HAVRE ST-PIERRE/QC    (show WxCam)

METAR CYGV 210500Z AUTO 26013KT 9SM FEW042 SCT240 04/01 A2933 RMK SLP934=
METAR CYGV 210400Z AUTO 25012KT 9SM BKN085 BKN240 05/02 A2934 RMK SLP937=
METAR CYGV 210300Z AUTO 24013G24KT 9SM SCT042 BKN050 BKN060 OVC092 07/05 A2933 RMK PRESRR SLP935=

TAF CYGV 210138Z 2102/2114 18010KT P6SM SCT015 OVC080 TEMPO 2102/2106
P6SM -SHRA BKN015 OVC080
BECMG 2102/2104 24010KT
FM210600 26012G22KT P6SM SCT020 TEMPO 2106/2109 BKN020
FM210900 26015G25KT P6SM BKN025 TEMPO 2109/2114 BKN020
RMK FCST BASED ON AUTO OBS. NXT FCST BY 210800Z=
Your time UTC time
Weather data provided by Environment Canada and NAV CANADA